createdAt,value
2019-05-22T00:02:40.923Z,12.77
2019-05-22T00:07:22.626Z,12.80
2019-05-22T00:12:03.080Z,12.80
2019-05-22T00:16:48.335Z,12.37
2019-05-22T00:21:27.209Z,12.50
2019-05-22T00:26:07.437Z,12.20
2019-05-22T00:30:48.428Z,12.27
2019-05-22T00:35:28.602Z,12.23
2019-05-22T00:40:08.862Z,13.50
2019-05-22T00:44:53.563Z,13.10
2019-05-22T00:49:33.626Z,13.57
2019-05-22T00:53:57.368Z,9.80
2019-05-22T00:58:41.571Z,8.90
2019-05-22T01:03:22.283Z,8.97
2019-05-22T01:08:05.684Z,9.43
2019-05-22T01:12:46.769Z,9.60
2019-05-22T01:17:27.220Z,9.40
2019-05-22T01:22:08.414Z,9.40
2019-05-22T01:26:49.392Z,10.20
2019-05-22T01:31:41.296Z,9.63
2019-05-22T01:36:27.520Z,12.10
2019-05-22T01:41:09.871Z,11.83
2019-05-22T01:45:54.400Z,12.07
2019-05-22T01:50:33.145Z,11.03
2019-05-22T01:54:35.787Z,10.87
2019-05-22T01:59:14.799Z,11.33
2019-05-22T02:03:55.916Z,12.70
2019-05-22T02:08:35.556Z,11.23
2019-05-22T02:13:14.884Z,12.10
2019-05-22T02:17:56.581Z,12.20
2019-05-22T02:22:40.317Z,12.67
2019-05-22T02:27:19.431Z,12.73
2019-05-22T02:31:58.782Z,13.63
2019-05-22T02:36:40.108Z,14.90
2019-05-22T02:41:20.257Z,14.50
2019-05-22T02:45:59.771Z,15.30
2019-05-22T02:50:39.233Z,15.90
2019-05-22T02:54:42.566Z,15.43
2019-05-22T02:59:22.465Z,15.57
2019-05-22T03:04:03.146Z,14.87
2019-05-22T03:08:42.102Z,16.33
2019-05-22T03:13:23.166Z,14.53
2019-05-22T03:18:04.326Z,15.33
2019-05-22T03:22:44.549Z,15.77
2019-05-22T03:27:24.360Z,14.63
2019-05-22T03:32:04.831Z,14.53
2019-05-22T03:36:44.441Z,14.77
2019-05-22T03:41:23.627Z,14.43
2019-05-22T03:46:04.544Z,17.20
2019-05-22T03:50:43.743Z,16.30
2019-05-22T03:54:46.495Z,16.00
2019-05-22T03:59:25.650Z,16.50
2019-05-22T04:04:05.934Z,17.00
2019-05-22T04:08:45.355Z,14.90
2019-05-22T04:13:25.527Z,15.10
2019-05-22T04:18:05.878Z,15.70
2019-05-22T04:22:45.377Z,15.87
2019-05-22T04:27:25.172Z,15.53
2019-05-22T04:32:13.216Z,14.70
2019-05-22T04:36:53.680Z,15.50
2019-05-22T04:41:33.041Z,15.43
2019-05-22T04:46:12.900Z,15.67
2019-05-22T04:50:52.818Z,15.13
2019-05-22T04:54:55.866Z,14.70
2019-05-22T04:59:36.015Z,15.20
2019-05-22T05:04:15.470Z,15.80
2019-05-22T05:08:55.126Z,15.70
2019-05-22T05:13:34.603Z,16.40
2019-05-22T05:18:14.046Z,16.10
2019-05-22T05:22:53.445Z,15.00
2019-05-22T05:27:33.213Z,15.00
2019-05-22T05:32:12.227Z,15.23
2019-05-22T05:36:51.676Z,14.27
2019-05-22T05:41:30.611Z,15.13
2019-05-22T05:46:11.178Z,16.07
2019-05-22T05:50:50.401Z,16.03
2019-05-22T05:55:12.365Z,17.03
2019-05-22T05:59:53.115Z,16.80
2019-05-22T06:04:35.059Z,16.87
2019-05-22T06:09:14.072Z,14.97
2019-05-22T06:13:16.989Z,14.57
2019-05-22T06:17:57.488Z,15.37
2019-05-22T06:22:37.041Z,15.27
2019-05-22T06:27:31.230Z,14.03
2019-05-22T06:32:12.260Z,15.20
2019-05-22T06:36:51.569Z,13.50
2019-05-22T06:41:37.569Z,15.20
2019-05-22T06:46:16.786Z,15.03
2019-05-22T06:50:56.355Z,14.20
2019-05-22T06:55:35.723Z,13.67
2019-05-22T06:59:38.419Z,14.60
2019-05-22T07:04:17.936Z,14.27
2019-05-22T07:08:57.416Z,13.60
2019-05-22T07:13:38.506Z,14.60
2019-05-22T07:18:19.332Z,12.63
2019-05-22T07:22:59.842Z,13.73
2019-05-22T07:27:40.588Z,13.83
2019-05-22T07:32:19.735Z,13.47
2019-05-22T07:37:00.565Z,13.33
2019-05-22T07:41:39.996Z,15.07
2019-05-22T07:46:19.220Z,13.93
2019-05-22T07:50:58.920Z,14.07
2019-05-22T07:55:38.029Z,14.20
2019-05-22T07:59:40.621Z,14.53
2019-05-22T08:04:20.261Z,14.60
2019-05-22T08:08:59.579Z,14.70
2019-05-22T08:13:39.540Z,14.50
2019-05-22T08:18:20.398Z,13.87
2019-05-22T08:23:00.084Z,11.97
2019-05-22T08:27:39.940Z,12.37
2019-05-22T08:32:22.125Z,12.10
2019-05-22T08:37:01.119Z,11.10
2019-05-22T08:41:40.412Z,13.30
2019-05-22T08:46:23.868Z,12.40
2019-05-22T08:51:01.275Z,10.57
2019-05-22T08:55:41.113Z,10.13
2019-05-22T08:59:45.182Z,11.23
2019-05-22T09:04:25.847Z,10.57
2019-05-22T09:09:04.790Z,9.50
2019-05-22T09:13:44.168Z,9.50
2019-05-22T09:18:23.697Z,8.60
2019-05-22T09:23:03.057Z,9.03
2019-05-22T09:27:43.222Z,6.73
2019-05-22T09:32:25.685Z,7.10
2019-05-22T09:37:06.382Z,7.83
2019-05-22T09:41:45.050Z,7.87
2019-05-22T09:46:29.752Z,8.27
2019-05-22T09:51:06.200Z,7.30
2019-05-22T09:55:47.327Z,6.93
2019-05-22T09:59:50.403Z,6.80
2019-05-22T10:04:30.437Z,6.07
2019-05-22T10:09:09.628Z,5.73
2019-05-22T10:13:49.405Z,6.30
2019-05-22T10:18:29.108Z,5.53
2019-05-22T10:23:15.290Z,5.70
2019-05-22T10:27:50.352Z,5.63
2019-05-22T10:32:33.049Z,4.77
2019-05-22T10:37:12.300Z,4.83
2019-05-22T10:41:51.739Z,5.37
2019-05-22T10:46:30.935Z,5.33
2019-05-22T10:51:11.738Z,5.30
2019-05-22T10:55:51.088Z,4.70
2019-05-22T10:59:53.684Z,4.80
2019-05-22T11:04:35.177Z,4.73
2019-05-22T11:09:14.642Z,4.13
2019-05-22T11:14:01.551Z,4.70
2019-05-22T11:18:35.228Z,4.83
2019-05-22T11:23:14.500Z,4.67
2019-05-22T11:27:54.386Z,4.40
2019-05-22T11:32:33.763Z,4.40
2019-05-22T11:37:13.008Z,4.23
2019-05-22T11:41:52.190Z,4.90
2019-05-22T11:46:31.419Z,4.30
2019-05-22T11:51:27.835Z,4.40
2019-05-22T11:56:07.095Z,4.50
2019-05-22T12:00:11.467Z,4.73
2019-05-22T12:04:51.940Z,4.10
2019-05-22T12:09:31.503Z,3.93
2019-05-22T12:14:12.835Z,3.97
2019-05-22T12:18:53.875Z,3.27
2019-05-22T12:23:36.020Z,3.00
2019-05-22T12:28:15.000Z,3.20
2019-05-22T12:32:54.721Z,3.33
2019-05-22T12:37:34.742Z,3.47
2019-05-22T12:42:15.964Z,3.07
2019-05-22T12:46:55.510Z,2.90
2019-05-22T12:51:34.845Z,3.13
2019-05-22T12:56:14.359Z,3.40
2019-05-22T13:00:21.939Z,2.67
2019-05-22T13:05:01.108Z,2.20
2019-05-22T13:09:43.380Z,2.30
2019-05-22T13:13:46.065Z,2.10
2019-05-22T13:18:26.287Z,2.20
2019-05-22T13:23:05.551Z,2.80
2019-05-22T13:27:45.195Z,2.60
2019-05-22T13:32:26.216Z,2.77
2019-05-22T13:37:07.302Z,2.60
2019-05-22T13:41:47.676Z,2.97
2019-05-22T13:46:26.659Z,2.80
2019-05-22T13:51:06.735Z,3.00
2019-05-22T13:55:45.801Z,3.10
2019-05-22T13:59:49.394Z,3.37
2019-05-22T14:04:28.622Z,3.30
2019-05-22T14:09:08.507Z,3.77
2019-05-22T14:13:36.594Z,3.03
2019-05-22T14:18:15.759Z,3.67
2019-05-22T14:22:54.763Z,2.80
2019-05-22T14:27:34.009Z,2.33
2019-05-22T14:32:13.682Z,2.60
2019-05-22T14:36:52.908Z,2.40
2019-05-22T14:41:32.207Z,3.03
2019-05-22T14:46:14.749Z,2.70
2019-05-22T14:50:54.115Z,2.30
2019-05-22T14:55:36.535Z,2.10
2019-05-22T15:00:17.121Z,2.60
2019-05-22T15:04:19.904Z,2.40
2019-05-22T15:08:59.232Z,2.13
2019-05-22T15:13:38.336Z,2.33
2019-05-22T15:18:17.491Z,2.20
2019-05-22T15:22:56.682Z,2.90
2019-05-22T15:27:36.639Z,2.40
2019-05-22T15:32:16.963Z,2.33
2019-05-22T15:36:56.744Z,2.73
2019-05-22T15:41:35.697Z,3.50
2019-05-22T15:46:15.328Z,2.67
2019-05-22T15:50:56.989Z,3.17
2019-05-22T15:55:36.116Z,2.20
2019-05-22T16:00:16.453Z,3.23
2019-05-22T16:04:23.884Z,2.70
2019-05-22T16:09:05.872Z,2.60
2019-05-22T16:13:46.113Z,2.80
2019-05-22T16:18:26.998Z,2.57
2019-05-22T16:23:06.947Z,2.30
2019-05-22T16:27:46.257Z,3.03
2019-05-22T16:32:25.564Z,2.63
2019-05-22T16:37:04.856Z,2.53
2019-05-22T16:41:44.267Z,3.27
2019-05-22T16:46:23.700Z,3.20
2019-05-22T16:51:02.791Z,3.60
2019-05-22T16:55:41.757Z,3.00
2019-05-22T17:00:20.942Z,2.70
2019-05-22T17:04:23.815Z,2.50
2019-05-22T17:09:18.856Z,2.50
2019-05-22T17:14:05.150Z,3.20
2019-05-22T17:18:47.777Z,2.87
2019-05-22T17:23:22.726Z,3.53
2019-05-22T17:28:03.087Z,3.00
2019-05-22T17:37:00.585Z,2.80
2019-05-22T17:41:40.969Z,2.97
2019-05-22T17:46:21.077Z,2.77
2019-05-22T17:51:01.539Z,2.30
2019-05-22T17:55:41.166Z,2.63
2019-05-22T18:00:26.479Z,2.60
2019-05-22T18:04:29.507Z,2.53
2019-05-22T18:09:09.651Z,2.30
2019-05-22T18:13:49.149Z,2.10
2019-05-22T18:18:28.634Z,2.40
2019-05-22T18:23:08.351Z,2.40
2019-05-22T18:27:49.534Z,2.57
2019-05-22T18:32:31.530Z,3.10
2019-05-22T18:36:34.396Z,2.60
2019-05-22T18:41:13.578Z,2.30
2019-05-22T18:45:53.106Z,2.33
2019-05-22T18:50:33.574Z,2.57
2019-05-22T18:55:12.882Z,2.23
2019-05-22T18:59:51.683Z,2.30
2019-05-22T19:03:54.683Z,3.17
2019-05-22T19:08:35.306Z,2.47
2019-05-22T19:12:38.433Z,2.10
2019-05-22T19:17:20.583Z,1.97
2019-05-22T19:22:12.211Z,2.63
2019-05-22T19:26:54.993Z,2.53
2019-05-22T19:31:34.400Z,2.70
2019-05-22T19:36:13.629Z,2.50
2019-05-22T19:40:52.876Z,2.17
2019-05-22T19:45:32.340Z,2.20
2019-05-22T19:50:23.124Z,2.67
2019-05-22T19:54:56.956Z,2.80
2019-05-22T19:59:36.653Z,2.63
2019-05-22T20:03:39.578Z,3.40
2019-05-22T20:08:19.323Z,3.03
2019-05-22T20:13:02.354Z,2.63
2019-05-22T20:17:42.004Z,2.50
2019-05-22T20:22:21.927Z,2.50
2019-05-22T20:27:01.711Z,2.93
2019-05-22T20:31:41.652Z,4.17
2019-05-22T20:36:20.972Z,2.77
2019-05-22T20:41:00.066Z,2.77
2019-05-22T20:45:40.519Z,2.77
2019-05-22T20:50:20.674Z,2.60
2019-05-22T20:55:01.714Z,2.87
2019-05-22T20:59:41.521Z,2.03
2019-05-22T21:03:44.911Z,3.23
2019-05-22T21:08:24.798Z,2.73
2019-05-22T21:13:08.936Z,3.90
2019-05-22T21:17:48.875Z,3.03
2019-05-22T21:22:38.077Z,3.50
2019-05-22T21:27:17.938Z,3.10
2019-05-22T21:31:58.046Z,3.17
2019-05-22T21:36:37.366Z,3.30
2019-05-22T21:41:16.956Z,3.50
2019-05-22T21:45:56.567Z,3.40
2019-05-22T21:50:36.137Z,3.50
2019-05-22T21:55:17.272Z,3.80
2019-05-22T21:59:59.742Z,3.70
2019-05-22T22:04:25.121Z,3.97
2019-05-22T22:09:06.515Z,3.63
2019-05-22T22:13:47.081Z,3.80
2019-05-22T22:18:30.216Z,4.67
2019-05-22T22:23:10.071Z,3.83
2019-05-22T22:27:52.886Z,3.80
2019-05-22T22:32:34.314Z,4.00
2019-05-22T22:37:18.792Z,3.90
2019-05-22T22:41:59.082Z,4.53
2019-05-22T22:46:43.069Z,4.13
2019-05-22T22:51:24.053Z,4.70
2019-05-22T22:56:05.653Z,3.90
2019-05-22T23:00:45.674Z,3.70
2019-05-22T23:04:49.995Z,4.30
2019-05-22T23:09:29.652Z,4.50
2019-05-22T23:14:09.677Z,5.30
2019-05-22T23:18:48.737Z,3.97
2019-05-22T23:23:28.798Z,4.73
2019-05-22T23:28:07.971Z,5.17
2019-05-22T23:32:47.179Z,4.40
2019-05-22T23:37:27.429Z,5.00
2019-05-22T23:42:13.829Z,5.07
2019-05-22T23:46:53.518Z,6.70
2019-05-22T23:51:32.652Z,4.87
2019-05-22T23:56:11.862Z,6.13
